Terminal Aerodrome Forecast
Issued by NWS Wichita, KS

Home | Current Version | Previous Version | Text Only | Print | Product List | Glossary On
Versions: 1 2 3 4 5 6 7 8 9 10 11 12 13 14 15 16 17 18 19 20 21 22 23
000
FTUS43 KICT 161122
TAFICT
TAF
KICT 161122Z 1612/1712 17009KT P6SM VCTS SCT008CB BKN080
     FM161400 18009KT P6SM SCT015 BKN080
     FM161800 19012KT P6SM VCTS BKN080CB
     FM162200 23012KT P6SM -SHRA VCTS SCT050CB BKN080
     FM170200 32010KT P6SM -SHRA VCTS BKN090CB
     FM170300 34009KT P6SM VCTS BKN150CB
     FM170600 31007KT P6SM SCT200=

USA.gov is the U.S. government's official web portal to all federal, state and local government web resources and services.